Time;durP1;ratioP1;P1;durP2;ratioP2;P2;SDS_P1;SDS_P2;PMS_P1;PMS_P2;Temp;Humidity;BMP_temperature;BMP_pressure;BME280_temperature;BME280_humidity;BME280_pressure;Samples;Min_cycle;Max_cycle;Signal;HPM_P1;HPM_P2
2023/06/04 00:01:02;;;;;;;6.43;3.40;;;;;;;9.09;49.46;98876.28;5053246;28;20116;-67
2023/06/04 00:03:27;;;;;;;7.63;3.53;;;;;;;9.07;49.11;98875.75;5047210;28;20096;-68
2023/06/04 00:05:53;;;;;;;6.85;3.38;;;;;;;9.05;49.57;98868.91;5045148;28;20021;-68
2023/06/04 00:08:18;;;;;;;7.30;3.30;;;;;;;9.06;49.50;98865.09;5043011;28;20367;-68
2023/06/04 00:10:43;;;;;;;6.90;3.10;;;;;;;9.03;49.66;98865.63;5053846;28;20044;-68
2023/06/04 00:13:09;;;;;;;6.93;2.95;;;;;;;9.02;49.52;98853.06;5053418;28;20112;-68
2023/06/04 00:15:34;;;;;;;4.50;2.83;;;;;;;9.01;49.59;98862.34;5053549;28;20021;-68
2023/06/04 00:18:00;;;;;;;7.15;3.30;;;;;;;8.97;49.73;98861.25;5053611;28;20066;-68
2023/06/04 00:20:25;;;;;;;7.35;3.10;;;;;;;8.93;50.14;98864.53;5053809;28;20032;-68
2023/06/04 00:22:51;;;;;;;7.13;3.25;;;;;;;8.89;50.17;98857.97;5053430;28;20028;-68
2023/06/04 00:25:16;;;;;;;6.93;3.22;;;;;;;8.87;50.32;98854.69;5052031;28;20060;-69
2023/06/04 00:27:42;;;;;;;6.05;3.10;;;;;;;8.83;49.89;98847.34;5049297;28;20025;-68
2023/06/04 00:30:07;;;;;;;6.13;3.20;;;;;;;8.81;50.31;98855.78;5045553;28;20118;-68
2023/06/04 00:32:33;;;;;;;4.80;2.60;;;;;;;8.75;50.32;98848.72;5033980;28;20021;-68
2023/06/04 00:34:58;;;;;;;3.92;3.03;;;;;;;8.72;50.48;98857.47;5033919;28;20429;-68
2023/06/04 00:37:25;;;;;;;6.45;3.00;;;;;;;8.69;50.69;98860.75;5033659;28;20022;-68
2023/06/04 00:39:51;;;;;;;5.07;3.40;;;;;;;8.67;50.73;98860.19;5033554;28;20049;-67
2023/06/04 00:42:17;;;;;;;7.45;4.18;;;;;;;8.64;50.98;98859.66;5040722;28;20090;-68
2023/06/04 00:44:44;;;;;;;9.02;5.07;;;;;;;8.62;50.99;98858.25;5053383;28;20021;-67
2023/06/04 00:47:16;;;;;;;8.80;5.47;;;;;;;8.60;50.93;98852.25;5053160;28;20025;-68
2023/06/04 00:49:41;;;;;;;9.73;4.80;;;;;;;8.59;51.22;98858.81;5051183;28;20470;-67
2023/06/04 00:52:10;;;;;;;8.07;3.92;;;;;;;8.57;51.40;98847.31;5051232;28;20040;-67
2023/06/04 00:54:38;;;;;;;4.85;3.47;;;;;;;8.56;51.30;98856.66;5050939;28;20075;-67
2023/06/04 00:57:04;;;;;;;5.50;3.10;;;;;;;8.53;51.08;98846.25;5053028;28;20013;-68
2023/06/04 00:59:34;;;;;;;7.28;3.33;;;;;;;8.51;51.51;98845.72;5052909;28;20025;-67
2023/06/04 01:02:05;;;;;;;7.32;3.28;;;;;;;8.48;51.47;98844.28;5050328;28;20111;-68
2023/06/04 01:04:37;;;;;;;6.00;2.75;;;;;;;8.43;51.56;98847.84;5052827;28;20021;-68
2023/06/04 01:07:04;;;;;;;5.32;3.10;;;;;;;8.41;51.39;98838.28;5050999;28;20071;-68
2023/06/04 01:09:30;;;;;;;5.72;2.90;;;;;;;8.39;51.62;98843.19;5053019;28;20116;-68
2023/06/04 01:12:01;;;;;;;5.70;2.80;;;;;;;8.35;51.54;98841.00;5052590;28;20466;-68
2023/06/04 01:14:27;;;;;;;5.43;2.78;;;;;;;8.33;52.11;98835.00;5050773;28;20071;-68
2023/06/04 01:17:02;;;;;;;6.65;3.47;;;;;;;8.31;51.84;98842.66;5052776;28;20021;-67
2023/06/04 01:19:54;;;;;;;5.07;2.80;;;;;;;8.29;51.96;98844.00;5050928;28;20435;-68
2023/06/04 01:22:59;;;;;;;4.75;3.03;;;;;;;8.23;51.92;98847.81;5052688;28;20082;-68
2023/06/04 01:25:41;;;;;;;4.57;2.70;;;;;;;8.19;52.41;98848.34;5052644;28;20033;-68
2023/06/04 01:28:08;;;;;;;5.85;2.80;;;;;;;8.16;52.71;98837.97;5049927;28;20056;-68
2023/06/04 01:30:36;;;;;;;4.55;2.83;;;;;;;8.14;52.27;98839.34;5045682;28;20083;-67
2023/06/04 01:33:02;;;;;;;7.35;2.97;;;;;;;8.12;52.44;98842.38;5033078;28;20382;-68
2023/06/04 01:35:32;;;;;;;6.35;3.00;;;;;;;8.12;52.79;98838.78;5033259;28;20025;-68
2023/06/04 01:37:57;;;;;;;4.80;3.03;;;;;;;8.11;52.43;98839.88;5033035;28;20029;-68
2023/06/04 01:40:25;;;;;;;4.18;2.53;;;;;;;8.08;52.25;98837.69;5032791;28;20060;-68
2023/06/04 01:42:50;;;;;;;3.65;2.25;;;;;;;8.05;52.95;98831.69;5032896;28;20515;-67
2023/06/04 01:45:16;;;;;;;5.53;2.65;;;;;;;8.02;52.88;98832.22;5033215;28;20030;-68
2023/06/04 01:47:41;;;;;;;5.60;3.10;;;;;;;8.02;52.97;98834.13;5035329;28;20025;-67
2023/06/04 01:50:10;;;;;;;7.00;3.05;;;;;;;8.00;53.00;98834.41;5044396;28;20033;-68
2023/06/04 01:52:37;;;;;;;6.32;2.75;;;;;;;7.99;53.11;98835.47;5032941;28;20036;-68
2023/06/04 01:55:04;;;;;;;5.25;2.90;;;;;;;7.99;53.08;98838.22;5032820;28;20556;-68
2023/06/04 01:57:30;;;;;;;3.83;2.50;;;;;;;7.99;53.32;98824.56;5035310;28;20401;-68
2023/06/04 01:59:56;;;;;;;4.05;2.45;;;;;;;7.99;53.25;98832.75;5048223;28;20045;-68
2023/06/04 02:02:21;;;;;;;4.85;2.58;;;;;;;8.00;53.46;98845.31;5052962;28;20037;-68
2023/06/04 02:04:47;;;;;;;5.07;2.80;;;;;;;7.97;53.39;98840.41;5052679;28;20431;-68
2023/06/04 02:07:17;;;;;;;3.50;2.25;;;;;;;7.97;53.59;98836.84;5052658;28;20040;-68
2023/06/04 02:09:43;;;;;;;;;;;;;;;7.92;53.38;98837.69;5053078;28;20029;-68
2023/06/04 02:12:08;;;;;;;5.70;2.38;;;;;;;7.92;53.36;98839.56;5052620;28;20014;-68
2023/06/04 02:14:34;;;;;;;5.25;2.60;;;;;;;7.90;53.63;98842.59;5053821;28;20036;-68
2023/06/04 02:16:59;;;;;;;4.88;2.28;;;;;;;7.89;53.58;98836.28;5056344;28;20484;-68
2023/06/04 02:19:25;;;;;;;3.95;2.20;;;;;;;7.86;53.58;98839.56;5056072;28;20040;-68
2023/06/04 02:21:52;;;;;;;3.55;2.35;;;;;;;7.83;53.66;98833.81;5056329;28;20025;-68
2023/06/04 02:24:17;;;;;;;3.95;2.42;;;;;;;7.79;54.19;98841.72;5056129;28;20033;-67
2023/06/04 02:26:42;;;;;;;6.35;2.85;;;;;;;7.76;53.94;98834.06;5056245;28;20075;-68
2023/06/04 02:29:08;;;;;;;6.75;3.10;;;;;;;7.73;53.60;98840.09;5056222;28;20029;-68
2023/06/04 02:31:33;;;;;;;5.55;2.72;;;;;;;7.73;54.17;98843.63;5056385;28;20158;-68
2023/06/04 02:33:58;;;;;;;5.03;2.50;;;;;;;7.72;54.04;98844.72;5056127;28;20190;-68
2023/06/04 02:36:24;;;;;;;4.35;2.42;;;;;;;7.71;54.28;98843.06;5055889;28;20033;-68
2023/06/04 02:38:51;;;;;;;6.80;2.58;;;;;;;7.69;54.09;98834.31;5055915;28;20021;-68
2023/06/04 02:41:16;;;;;;;3.63;2.40;;;;;;;7.68;54.36;98837.34;5054511;28;20401;-68
2023/06/04 02:43:41;;;;;;;7.03;2.97;;;;;;;7.67;54.61;98835.69;5055614;28;20029;-67
2023/06/04 02:46:07;;;;;;;6.28;2.50;;;;;;;7.67;54.68;98835.69;5048242;28;20148;-68
2023/06/04 02:48:32;;;;;;;4.30;2.55;;;;;;;7.70;54.70;98838.69;5044558;28;20446;-70
2023/06/04 02:50:58;;;;;;;5.45;2.72;;;;;;;7.72;54.81;98832.97;5035840;28;20030;-68
2023/06/04 02:53:23;;;;;;;7.18;3.50;;;;;;;7.73;54.89;98840.88;5036043;28;20386;-68
2023/06/04 02:55:50;;;;;;;10.05;3.55;;;;;;;7.77;54.96;98840.34;5037946;28;20079;-68
2023/06/04 02:58:16;;;;;;;7.10;3.17;;;;;;;7.81;54.70;98836.00;5055590;28;20078;-68
2023/06/04 03:00:42;;;;;;;5.18;2.90;;;;;;;7.83;54.98;98833.81;5055517;28;20036;-67
2023/06/04 03:03:07;;;;;;;7.65;2.92;;;;;;;7.84;54.73;98838.19;5055597;28;20032;-68
2023/06/04 03:05:32;;;;;;;5.90;2.67;;;;;;;7.83;54.99;98833.81;5053170;28;20021;-67
2023/06/04 03:07:59;;;;;;;5.32;2.80;;;;;;;7.84;55.12;98838.19;5055044;28;20021;-67
2023/06/04 03:10:25;;;;;;;5.00;2.58;;;;;;;7.86;55.31;98839.56;5054480;28;20473;-68
2023/06/04 03:12:50;;;;;;;5.82;2.67;;;;;;;7.88;55.31;98833.84;5055456;28;20070;-68
2023/06/04 03:15:16;;;;;;;5.00;2.67;;;;;;;7.89;54.98;98832.75;5054666;28;20070;-68
2023/06/04 03:17:42;;;;;;;4.45;2.67;;;;;;;7.92;55.48;98840.41;5055644;28;20411;-68
2023/06/04 03:20:08;;;;;;;5.80;2.45;;;;;;;7.97;55.23;98843.13;5055433;28;20158;-67
2023/06/04 03:22:35;;;;;;;6.05;2.70;;;;;;;8.01;55.47;98846.97;5055107;28;20084;-68
2023/06/04 03:25:01;;;;;;;5.53;2.72;;;;;;;8.04;55.03;98845.63;5053727;28;20486;-68
2023/06/04 03:27:27;;;;;;;5.82;2.65;;;;;;;8.10;55.74;98854.63;5055118;28;20079;-68
2023/06/04 03:29:52;;;;;;;6.95;3.30;;;;;;;8.12;55.45;98850.56;5054910;28;20039;-68
2023/06/04 03:32:18;;;;;;;5.00;2.50;;;;;;;8.16;55.45;98851.63;5055291;28;20104;-68
2023/06/04 03:34:44;;;;;;;5.75;2.65;;;;;;;8.22;55.54;98852.47;5054993;28;20432;-68
2023/06/04 03:37:09;;;;;;;5.78;3.08;;;;;;;8.27;55.61;98851.66;5054865;28;20035;-68
2023/06/04 03:39:35;;;;;;;7.45;2.92;;;;;;;8.32;55.71;98854.41;5054570;28;20021;-68
2023/06/04 03:42:00;;;;;;;6.93;2.55;;;;;;;8.38;55.40;98844.28;5054676;28;20029;-68
2023/06/04 03:44:26;;;;;;;5.65;3.00;;;;;;;8.43;55.22;98853.31;5054769;28;20457;-68
2023/06/04 03:46:51;;;;;;;6.15;3.03;;;;;;;8.47;56.10;98854.44;5054607;28;20025;-68
2023/06/04 03:49:17;;;;;;;7.00;3.03;;;;;;;8.53;55.57;98849.81;5054610;28;20033;-68
2023/06/04 03:51:42;;;;;;;6.03;2.92;;;;;;;8.60;55.63;98857.72;5053664;28;20029;-68
2023/06/04 03:54:08;;;;;;;5.50;2.70;;;;;;;8.67;55.99;98860.19;5054813;28;20036;-68
2023/06/04 03:56:33;;;;;;;7.18;3.03;;;;;;;8.71;55.23;98851.16;5054810;28;20079;-68
2023/06/04 03:58:59;;;;;;;7.35;3.20;;;;;;;8.75;55.87;98852.25;5054107;28;20470;-68
2023/06/04 04:01:25;;;;;;;6.05;3.25;;;;;;;8.82;55.66;98867.56;5054250;28;20071;-67
2023/06/04 04:03:51;;;;;;;6.25;3.10;;;;;;;8.89;55.59;98862.66;5054461;28;20021;-68
2023/06/04 04:06:17;;;;;;;7.07;2.60;;;;;;;8.95;56.13;98856.09;5054311;28;20071;-68
2023/06/04 04:08:43;;;;;;;5.18;2.53;;;;;;;9.00;55.95;98855.25;5054407;28;20056;-67
2023/06/04 04:11:09;;;;;;;8.20;2.60;;;;;;;9.05;55.52;98858.78;5054247;28;20103;-67
2023/06/04 04:13:35;;;;;;;6.18;2.20;;;;;;;9.11;55.59;98870.56;5053652;28;20083;-68
2023/06/04 04:16:00;;;;;;;4.70;2.45;;;;;;;9.17;55.58;98858.47;5051943;28;20226;-68
2023/06/04 04:18:27;;;;;;;5.95;2.22;;;;;;;9.22;56.17;98863.94;5051465;28;20065;-67
2023/06/04 04:20:53;;;;;;;4.20;2.28;;;;;;;9.29;55.64;98868.31;5051311;28;20028;-67
2023/06/04 04:23:18;;;;;;;5.63;2.42;;;;;;;9.33;56.33;98870.22;5051546;28;20158;-68
2023/06/04 04:25:44;;;;;;;4.45;2.42;;;;;;;9.38;56.27;98864.72;5051394;28;20074;-67
2023/06/04 04:28:09;;;;;;;4.18;2.28;;;;;;;9.46;56.15;98862.50;5051344;28;20382;-68
2023/06/04 04:30:35;;;;;;;4.38;2.15;;;;;;;9.52;56.09;98856.75;5051566;28;20150;-67
2023/06/04 04:33:04;;;;;;;5.93;2.25;;;;;;;9.59;56.24;98858.34;5051215;28;20032;-67
2023/06/04 04:35:32;;;;;;;4.63;2.13;;;;;;;9.65;56.13;98869.03;5051297;28;20025;-67
2023/06/04 04:37:58;;;;;;;4.43;2.30;;;;;;;9.73;56.53;98859.41;5050735;28;20028;-67
2023/06/04 04:40:23;;;;;;;5.00;2.28;;;;;;;9.82;55.81;98865.09;5051012;28;20135;-67
2023/06/04 04:42:48;;;;;;;3.53;2.00;;;;;;;9.91;56.84;98865.34;5051389;28;20444;-68
2023/06/04 04:45:14;;;;;;;3.67;2.13;;;;;;;9.96;56.35;98871.63;5051112;28;20047;-68
2023/06/04 04:47:39;;;;;;;4.82;2.25;;;;;;;10.02;56.07;98871.59;5050928;28;20039;-67
2023/06/04 04:50:05;;;;;;;4.72;2.25;;;;;;;10.08;55.89;98873.22;5051216;28;20057;-68
2023/06/04 04:52:31;;;;;;;3.50;2.20;;;;;;;10.15;56.63;98867.41;5051072;28;20104;-68
2023/06/04 04:54:57;;;;;;;5.95;2.30;;;;;;;10.23;56.19;98869.56;5051119;28;20037;-67
2023/06/04 04:57:26;;;;;;;5.60;2.30;;;;;;;10.29;56.95;98873.91;5050830;28;20032;-67
2023/06/04 04:59:51;;;;;;;5.53;2.13;;;;;;;10.34;56.50;98868.38;5050673;28;20032;-67
2023/06/04 05:02:17;;;;;;;4.88;2.20;;;;;;;10.40;56.05;98867.25;5050990;28;20036;-68
2023/06/04 05:04:42;;;;;;;4.82;2.20;;;;;;;10.48;56.56;98876.81;5050673;28;20133;-67
2023/06/04 05:07:07;;;;;;;4.68;2.40;;;;;;;10.54;56.70;98874.84;5050930;28;20033;-68
2023/06/04 05:09:33;;;;;;;4.75;2.42;;;;;;;10.64;56.99;98873.94;5050735;28;20110;-68
2023/06/04 05:11:58;;;;;;;3.35;2.00;;;;;;;10.70;56.61;98872.81;5050633;28;20435;-68
2023/06/04 05:14:23;;;;;;;5.47;3.05;;;;;;;10.77;56.40;98875.22;5050782;28;20033;-68
2023/06/04 05:16:49;;;;;;;5.18;2.38;;;;;;;10.85;55.87;98875.44;5050676;28;20052;-68
2023/06/04 05:19:16;;;;;;;4.85;2.90;;;;;;;10.92;55.94;98869.59;5050419;28;20028;-67
2023/06/04 05:21:43;;;;;;;8.23;2.60;;;;;;;11.01;55.83;98875.28;5050472;28;20025;-68
2023/06/04 05:24:09;;;;;;;5.50;2.88;;;;;;;11.09;56.03;98871.91;5050594;28;20096;-68
2023/06/04 05:26:35;;;;;;;5.03;2.70;;;;;;;11.17;56.30;98890.50;5050450;28;20067;-68
2023/06/04 05:29:01;;;;;;;7.32;3.10;;;;;;;11.24;55.79;98883.84;5050540;28;20021;-67
2023/06/04 05:31:27;;;;;;;4.70;2.40;;;;;;;11.31;56.11;98881.59;5050238;28;20529;-68
2023/06/04 05:33:52;;;;;;;6.07;2.95;;;;;;;11.39;56.13;98878.22;5050541;28;20112;-69
2023/06/04 05:36:19;;;;;;;6.28;3.00;;;;;;;11.46;56.08;98881.41;5050920;28;20037;-68
2023/06/04 05:38:44;;;;;;;5.75;3.00;;;;;;;11.57;55.63;98878.53;5050430;28;20082;-68
2023/06/04 05:41:11;;;;;;;6.28;3.15;;;;;;;11.67;55.63;98875.69;5050337;28;20088;-68
2023/06/04 05:43:36;;;;;;;8.63;3.20;;;;;;;11.75;55.83;98880.53;5050506;28;20040;-68
2023/06/04 05:46:01;;;;;;;6.47;3.17;;;;;;;11.83;56.22;98881.81;5050739;28;20028;-67
2023/06/04 05:48:27;;;;;;;6.53;3.28;;;;;;;11.91;55.91;98883.91;5050524;28;20458;-68
2023/06/04 05:50:52;;;;;;;7.85;3.10;;;;;;;11.99;55.88;98889.88;5053759;28;20033;-68
2023/06/04 05:53:17;;;;;;;6.38;3.28;;;;;;;12.10;56.11;98885.88;5053355;28;20120;-68
2023/06/04 05:55:45;;;;;;;5.78;3.17;;;;;;;12.24;55.87;98887.91;5054610;28;20385;-69
2023/06/04 05:58:11;;;;;;;5.78;3.03;;;;;;;12.34;56.13;98896.00;5053233;28;20029;-68
2023/06/04 06:00:36;;;;;;;3.90;2.67;;;;;;;12.47;56.05;98892.50;5055354;28;20043;-68
2023/06/04 06:03:02;;;;;;;5.60;2.67;;;;;;;12.61;55.24;98889.84;5054236;28;20523;-69
2023/06/04 06:05:27;;;;;;;5.95;2.90;;;;;;;12.71;55.39;98891.59;5053910;28;20108;-68
2023/06/04 06:07:53;;;;;;;6.70;3.25;;;;;;;12.83;55.42;98898.59;5054274;28;20028;-68
2023/06/04 06:10:19;;;;;;;4.65;2.55;;;;;;;12.98;54.70;98897.50;5054180;28;20585;-68
2023/06/04 06:12:44;;;;;;;6.25;2.50;;;;;;;13.07;54.62;98896.50;5054039;28;20029;-68
2023/06/04 06:15:10;;;;;;;7.90;3.58;;;;;;;13.18;54.54;98899.09;5054053;28;20382;-69
2023/06/04 06:17:37;;;;;;;4.50;2.47;;;;;;;13.31;54.25;98897.47;5053748;28;20021;-68
2023/06/04 06:20:07;;;;;;;5.47;2.60;;;;;;;13.41;53.99;98908.34;5053920;28;20572;-68
2023/06/04 06:22:32;;;;;;;4.75;2.47;;;;;;;13.51;53.88;98912.84;5053648;28;20090;-68
2023/06/04 06:24:58;;;;;;;5.18;2.60;;;;;;;13.60;53.59;98908.25;5053740;28;20025;-68
2023/06/04 06:27:25;;;;;;;5.07;2.35;;;;;;;13.70;53.50;98918.25;5054209;28;20035;-69
2023/06/04 06:29:50;;;;;;;6.07;2.70;;;;;;;13.83;53.12;98913.84;5053534;28;20496;-68
2023/06/04 06:32:16;;;;;;;3.50;2.33;;;;;;;13.94;52.88;98923.56;5053680;28;20021;-69
2023/06/04 06:34:41;;;;;;;4.05;2.40;;;;;;;14.01;52.63;98919.59;5053582;28;20021;-69
2023/06/04 06:37:07;;;;;;;4.80;1.88;;;;;;;14.12;52.60;98913.53;5053651;28;20029;-70
2023/06/04 06:39:32;;;;;;;4.53;2.05;;;;;;;14.24;52.00;98913.00;5053055;28;20033;-69
2023/06/04 06:41:58;;;;;;;4.38;2.42;;;;;;;14.32;51.81;98903.16;5053792;28;20028;-68
2023/06/04 06:44:24;;;;;;;4.13;1.98;;;;;;;14.40;51.45;98912.66;5053420;28;20361;-68
2023/06/04 06:46:50;;;;;;;5.15;2.33;;;;;;;14.50;51.67;98912.41;5053664;28;20182;-68
2023/06/04 06:49:15;;;;;;;4.00;2.20;;;;;;;14.59;51.25;98921.59;5053571;28;20517;-69
2023/06/04 06:51:41;;;;;;;4.32;2.35;;;;;;;14.70;50.85;98911.16;5053323;28;20031;-68
2023/06/04 06:54:08;;;;;;;3.53;2.22;;;;;;;14.82;50.93;98905.09;5053299;28;20041;-68
2023/06/04 06:56:34;;;;;;;6.90;2.20;;;;;;;14.92;50.53;98908.72;5053004;28;20025;-68
2023/06/04 06:58:59;;;;;;;4.25;2.20;;;;;;;14.98;50.07;98904.69;5053298;28;20033;-69
2023/06/04 07:01:25;;;;;;;6.18;2.13;;;;;;;15.03;50.13;98907.31;5052628;28;20025;-68
2023/06/04 07:03:50;;;;;;;6.32;2.47;;;;;;;15.07;49.71;98911.09;5052960;28;20029;-68
2023/06/04 07:06:16;;;;;;;5.60;2.60;;;;;;;15.14;49.91;98905.94;5053135;28;20119;-68
2023/06/04 07:08:42;;;;;;;3.78;2.00;;;;;;;15.25;49.76;98912.00;5052800;28;20029;-69
2023/06/04 07:11:11;;;;;;;3.33;2.03;;;;;;;15.36;49.39;98911.75;5053500;28;20052;-68
2023/06/04 07:13:37;;;;;;;3.30;2.03;;;;;;;15.46;49.49;98905.97;5055285;28;20525;-68
2023/06/04 07:16:02;;;;;;;7.78;2.30;;;;;;;15.57;49.65;98906.50;5055427;28;20024;-68
2023/06/04 07:18:28;;;;;;;4.90;2.30;;;;;;;15.68;48.86;98899.56;5054816;28;20033;-67
2023/06/04 07:20:53;;;;;;;6.57;2.42;;;;;;;15.77;48.85;98900.38;5055170;28;20033;-68
2023/06/04 07:23:19;;;;;;;3.72;2.40;;;;;;;15.79;48.62;98913.91;5055053;28;20021;-69
2023/06/04 07:25:44;;;;;;;6.82;2.55;;;;;;;15.84;48.65;98904.63;5054975;28;20428;-68
2023/06/04 07:28:10;;;;;;;3.47;2.25;;;;;;;15.90;48.40;98903.38;5055078;28;20107;-68
2023/06/04 07:30:36;;;;;;;6.65;2.10;;;;;;;15.98;48.74;98901.75;5054935;28;20029;-69
2023/06/04 07:33:02;;;;;;;5.65;2.22;;;;;;;16.06;48.48;98906.50;5053755;28;20017;-68
2023/06/04 07:35:27;;;;;;;7.15;2.17;;;;;;;16.12;48.78;98910.75;5054997;28;20476;-69
2023/06/04 07:37:53;;;;;;;3.58;1.77;;;;;;;16.24;48.47;98904.59;5055059;28;20462;-69
2023/06/04 07:40:18;;;;;;;4.93;1.75;;;;;;;16.34;47.84;98909.00;5054593;28;20049;-68
2023/06/04 07:42:45;;;;;;;4.75;1.73;;;;;;;16.50;47.25;98912.13;5054872;28;20427;-69
2023/06/04 07:45:10;;;;;;;4.95;1.92;;;;;;;16.60;46.95;98906.25;5054739;28;20025;-69
2023/06/04 07:47:36;;;;;;;7.95;2.08;;;;;;;16.69;46.72;98905.44;5054629;28;20382;-69
2023/06/04 07:50:02;;;;;;;3.50;1.60;;;;;;;16.76;46.35;98908.53;5054946;28;20052;-69
2023/06/04 07:52:28;;;;;;;4.00;1.50;;;;;;;16.82;46.03;98910.00;5054996;28;20111;-68
2023/06/04 07:54:53;;;;;;;3.28;1.40;;;;;;;16.89;45.59;98910.31;5054580;28;20535;-69
2023/06/04 07:57:19;;;;;;;5.88;1.80;;;;;;;16.99;45.69;98913.91;5054501;28;20454;-68
2023/06/04 07:59:44;;;;;;;2.67;1.33;;;;;;;17.08;45.58;98904.47;5054423;28;20113;-68
2023/06/04 08:02:10;;;;;;;3.70;1.50;;;;;;;17.18;45.36;98913.56;5054482;28;20029;-69
2023/06/04 08:04:35;;;;;;;5.45;3.17;;;;;;;17.26;44.90;98916.31;5054477;28;20792;-69
2023/06/04 08:07:00;;;;;;;3.03;1.63;;;;;;;17.39;44.57;98905.34;5054252;28;20039;-68
2023/06/04 08:09:26;;;;;;;3.63;1.85;;;;;;;17.44;44.35;98910.72;5054341;28;20714;-69
2023/06/04 08:11:51;;;;;;;5.95;1.70;;;;;;;17.51;44.28;98905.47;5053702;28;20025;-68
2023/06/04 08:14:16;;;;;;;3.67;2.25;;;;;;;17.60;43.91;98904.63;5052946;28;20087;-68
2023/06/04 08:16:42;;;;;;;4.45;1.42;;;;;;;17.71;43.38;98906.69;5054173;28;20072;-68
2023/06/04 08:19:07;;;;;;;3.92;1.30;;;;;;;17.85;42.22;98912.00;5054034;28;20116;-68
2023/06/04 08:21:33;;;;;;;4.68;1.33;;;;;;;17.97;42.40;98916.03;5053991;28;20027;-69
2023/06/04 08:23:59;;;;;;;4.72;1.58;;;;;;;18.04;41.72;98915.53;5053992;28;20405;-69
2023/06/04 08:26:26;;;;;;;2.10;1.40;;;;;;;18.08;42.28;98914.56;5054009;28;20033;-68
2023/06/04 08:28:52;;;;;;;4.20;1.50;;;;;;;18.10;41.67;98906.72;5054227;28;20051;-68
2023/06/04 08:31:18;;;;;;;6.50;1.65;;;;;;;18.10;41.89;98909.47;5054076;28;20484;-68
2023/06/04 08:33:46;;;;;;;2.45;1.45;;;;;;;18.13;42.00;98913.53;5054184;28;20044;-69
2023/06/04 08:36:12;;;;;;;2.25;1.30;;;;;;;18.20;42.36;98913.81;5053683;28;20052;-68
2023/06/04 08:38:37;;;;;;;2.85;1.35;;;;;;;18.36;41.32;98916.00;5053887;28;20037;-68
2023/06/04 08:41:12;;;;;;;3.58;1.20;;;;;;;18.45;41.36;98919.53;5053461;28;20106;-67
2023/06/04 08:43:40;;;;;;;2.33;1.27;;;;;;;18.56;41.68;98920.75;5053768;28;20159;-68
2023/06/04 08:46:08;;;;;;;2.60;1.45;;;;;;;18.59;41.52;98917.31;5053575;28;20025;-69
2023/06/04 08:48:34;;;;;;;2.50;1.40;;;;;;;18.65;41.40;98917.91;5053610;28;20484;-69
2023/06/04 08:51:01;;;;;;;2.42;1.50;;;;;;;18.69;41.52;98916.06;5053826;28;20108;-68
2023/06/04 08:53:27;;;;;;;2.70;1.42;;;;;;;18.76;41.46;98915.53;5053523;28;20087;-68
2023/06/04 08:55:53;;;;;;;2.17;1.40;;;;;;;18.80;40.75;98919.25;5053494;28;20021;-68
2023/06/04 08:58:19;;;;;;;2.58;1.40;;;;;;;18.85;41.25;98915.47;5053490;28;20489;-68
2023/06/04 09:00:45;;;;;;;4.18;1.83;;;;;;;18.97;40.55;98917.50;5053311;28;20033;-69
2023/06/04 09:03:12;;;;;;;2.63;1.50;;;;;;;19.12;39.92;98918.84;5053344;28;20116;-68
2023/06/04 09:05:39;;;;;;;2.72;1.98;;;;;;;19.25;40.69;98917.72;5053315;28;20029;-69
2023/06/04 09:08:09;;;;;;;1.90;1.52;;;;;;;19.35;40.83;98916.47;5053172;28;20032;-69
2023/06/04 09:10:36;;;;;;;;;;;;;;;19.46;41.05;98920.44;5053601;28;20398;-68
2023/06/04 09:13:03;;;;;;;5.43;1.50;;;;;;;19.52;40.48;98918.25;5053250;28;19913;-69
2023/06/04 09:15:28;;;;;;;3.05;1.80;;;;;;;19.51;39.69;98924.97;5053062;28;20025;-67
2023/06/04 09:17:54;;;;;;;3.92;1.55;;;;;;;19.56;40.05;98921.97;5053396;28;20036;-69
2023/06/04 09:20:24;;;;;;;2.95;1.45;;;;;;;19.59;40.11;98915.69;5053062;28;20059;-69
2023/06/04 09:22:49;;;;;;;;;;;;;;;19.66;39.95;98908.75;5053496;28;20051;-69
2023/06/04 09:25:26;;;;;;;3.13;1.50;;;;;;;19.71;40.07;98905.75;5053055;28;20362;-69
2023/06/04 09:27:52;;;;;;;3.03;1.63;;;;;;;19.78;39.44;98911.53;5053200;28;20028;-68
2023/06/04 09:30:18;;;;;;;1.50;1.10;;;;;;;19.86;39.20;98913.41;5053231;28;20029;-69
2023/06/04 09:32:44;;;;;;;2.33;1.30;;;;;;;19.94;38.92;98906.13;5053034;28;20025;-69
2023/06/04 09:35:14;;;;;;;1.80;1.13;;;;;;;20.00;39.24;98904.72;5050003;28;20036;-68
2023/06/04 09:37:41;;;;;;;3.72;1.65;;;;;;;20.10;38.99;98911.00;5044115;28;20500;-69
2023/06/04 09:40:07;;;;;;;5.00;1.58;;;;;;;20.19;39.38;98901.34;5052370;28;20053;-68
2023/06/04 09:42:49;;;;;;;2.80;1.30;;;;;;;20.23;38.81;98899.47;5048928;28;20074;-69
2023/06/04 09:45:35;;;;;;;3.45;1.10;;;;;;;20.33;38.68;98900.16;5051737;28;20021;-69
2023/06/04 09:48:02;;;;;;;3.65;1.20;;;;;;;20.39;38.72;98890.41;5051267;28;20025;-69
2023/06/04 09:50:33;;;;;;;2.67;1.50;;;;;;;20.44;38.95;98898.53;5051120;28;20033;-69
2023/06/04 09:52:59;;;;;;;3.45;1.55;;;;;;;20.55;38.67;98898.03;5050329;28;20082;-69
2023/06/04 09:55:25;;;;;;;3.38;1.40;;;;;;;20.62;38.57;98889.88;5051009;28;20484;-69
2023/06/04 09:57:51;;;;;;;2.75;1.65;;;;;;;20.68;38.89;98894.88;5051550;28;20029;-69
2023/06/04 10:00:18;;;;;;;2.63;1.40;;;;;;;20.73;38.54;98904.94;5049939;28;20375;-69
2023/06/04 10:02:47;;;;;;;2.90;1.48;;;;;;;20.84;38.42;98896.91;5051463;28;20025;-68
2023/06/04 10:05:14;;;;;;;3.15;1.50;;;;;;;20.80;37.60;98891.25;5051706;28;20028;-68
2023/06/04 10:07:46;;;;;;;3.88;1.52;;;;;;;20.77;37.79;98891.94;5051519;28;20381;-69
2023/06/04 10:10:21;;;;;;;3.00;2.00;;;;;;;20.81;38.66;98900.41;5051838;28;20135;-70
2023/06/04 10:13:02;;;;;;;2.60;1.60;;;;;;;20.82;38.17;98893.66;5051371;28;20033;-69
2023/06/04 10:15:28;;;;;;;3.28;1.45;;;;;;;20.77;37.71;98889.16;5051745;28;20048;-69
2023/06/04 10:17:55;;;;;;;4.13;1.77;;;;;;;20.79;37.37;98886.84;5051364;28;20489;-66
2023/06/04 10:20:21;;;;;;;2.70;1.40;;;;;;;20.90;37.77;98897.47;5051143;28;20025;-67
2023/06/04 10:22:48;;;;;;;2.75;1.48;;;;;;;20.94;37.20;98898.41;5051586;28;20017;-67
2023/06/04 10:25:15;;;;;;;3.42;1.55;;;;;;;20.95;37.70;98900.81;5051200;28;20163;-67
2023/06/04 10:27:40;;;;;;;3.65;1.35;;;;;;;20.98;36.81;98893.75;5051279;28;20032;-67
2023/06/04 10:30:06;;;;;;;1.95;1.17;;;;;;;20.96;37.04;98896.06;5051199;28;20056;-65
2023/06/04 10:32:32;;;;;;;3.22;1.60;;;;;;;20.94;36.67;98887.25;5051386;28;20495;-66
2023/06/04 10:34:57;;;;;;;2.42;1.50;;;;;;;20.91;36.57;98890.75;5051099;28;20115;-65
2023/06/04 10:37:25;;;;;;;2.63;1.40;;;;;;;20.91;36.07;98896.31;5055006;28;20025;-65
2023/06/04 10:39:55;;;;;;;2.35;1.50;;;;;;;20.95;36.81;98895.25;5054587;28;20036;-66
2023/06/04 10:42:21;;;;;;;4.10;1.48;;;;;;;21.00;36.71;98894.16;5054346;28;20480;-67
2023/06/04 10:44:48;;;;;;;3.17;1.50;;;;;;;21.06;36.19;98889.94;5054764;28;20539;-66
2023/06/04 10:47:26;;;;;;;2.90;1.50;;;;;;;21.10;35.95;98888.06;5054374;28;20100;-66
2023/06/04 10:49:54;;;;;;;2.13;1.50;;;;;;;21.11;35.44;98886.91;5054695;28;20075;-67
2023/06/04 10:52:20;;;;;;;3.65;1.60;;;;;;;21.12;35.43;98882.97;5054796;28;20033;-66
2023/06/04 10:54:53;;;;;;;3.33;1.90;;;;;;;21.18;35.64;98889.09;5049382;28;20132;-67
2023/06/04 10:57:18;;;;;;;3.60;1.50;;;;;;;21.27;36.03;98880.56;5047592;28;20103;-66
2023/06/04 10:59:55;;;;;;;2.92;1.67;;;;;;;21.37;35.85;98877.25;5044286;28;20037;-67
2023/06/04 11:02:21;;;;;;;1.60;1.50;;;;;;;21.50;35.92;98879.94;5034650;28;20029;-68
2023/06/04 11:04:47;;;;;;;2.17;1.70;;;;;;;21.59;36.22;98886.16;5034636;28;20018;-67
2023/06/04 11:07:12;;;;;;;4.20;1.98;;;;;;;21.59;35.57;98883.38;5038649;28;20481;-68
2023/06/04 11:09:48;;;;;;;2.97;1.52;;;;;;;21.57;35.18;98882.91;5054430;28;20021;-67
2023/06/04 11:12:14;;;;;;;3.20;1.60;;;;;;;21.61;35.40;98883.00;5054689;28;20021;-67
2023/06/04 11:14:39;;;;;;;2.55;1.70;;;;;;;21.68;34.99;98886.00;5054307;28;20086;-67
2023/06/04 11:17:12;;;;;;;2.28;1.45;;;;;;;21.65;34.49;98876.38;5052951;28;20021;-67
2023/06/04 11:19:38;;;;;;;3.85;1.65;;;;;;;21.62;34.52;98885.47;5053997;28;20025;-69
2023/06/04 11:22:05;;;;;;;2.28;1.60;;;;;;;21.55;34.17;98877.69;5054274;28;20044;-68
2023/06/04 11:24:31;;;;;;;3.75;1.50;;;;;;;21.57;33.85;98885.69;5054169;28;20033;-68
2023/06/04 11:27:00;;;;;;;2.17;1.58;;;;;;;21.59;34.03;98885.34;5053914;28;20036;-68
2023/06/04 11:29:25;;;;;;;5.30;2.13;;;;;;;21.69;34.55;98882.84;5054141;28;20033;-68
2023/06/04 11:31:51;;;;;;;4.55;1.75;;;;;;;21.82;34.99;98882.75;5053942;28;20492;-68
2023/06/04 11:34:26;;;;;;;2.20;1.50;;;;;;;21.90;34.57;98881.75;5054294;28;20033;-68